Terminal Aerodrome Forecast
Issued by NWS Blacksburg, VA

Home | Current Version | Previous Version | Text Only | Print | Product List | Glossary On
Versions: 1 2 3 4 5 6 7 8 9 10 11 12 13 14 15 16 17 18 19 20 21 22 23 24 25 26 27 28 29 30 31 32 33 34 35 36 37 38 39 40 41 42 43 44 45
000
FTUS41 KRNK 050644 AAB
TAFLYH
TAF AMD
KLYH 050644Z 0507/0606 VRB03KT 1SM BR OVC002
     FM051000 05005KT 5SM BR OVC015
     FM051500 10006KT P6SM VCSH OVC035
     FM052000 12007KT 4SM -SHRA BR OVC030
      TEMPO 0520/0524 1SM TSRA BR OVC015CB
     FM060000 10006KT 5SM -SHRA BR OVC025=

USA.gov is the U.S. government's official web portal to all federal, state and local government web resources and services.